»·PEaware :: UAL1952 KIAD-KLAS

UAL1952 :: KIAD-KLAS

FLIGHT INFORMATION

Flight Status: Arrived
Operator:
United Airlines
More flights by this operator :: More flights under this callsign
Pilot: Jac C. (16067)
Aircraft: BOEING 737-900
(B739)
More flights by this aircraft type
Origin: KIAD Washington Dulles Intl
United States
Destination: KLAS McCarran Intl
United States
More flights between these airports :: More routes between these airports
Route: +BUNZZ3 RAMAY Q72 HACKS J149 EMPTY J80 BAYLI/N0464F340 J80 MCI J24 SLN J102 ALS J110 RSK J64 PGS KADDY2
File this flight plan on PilotEdge
Remarks: PBN / A1B1C1D1S1S2 DOF / 180614 REG / N66841 EET / KZID0026 KZKC0117 KZDV0239 KZLA0358 OPR / UAL PER / D RMK / TCAS SIMBRIEF
Altitude:
(Current/Filed)
32,000ft
Speed:
(Current/Filed)
460kts
Departed: 14-Jun-18 03:19 PM
Arrived: 14-Jun-18 05:09 PM
Distance/Time
Traveled:
1789nm/1:50
Distance/Time
To Go:
Arrived

Flight Plot

Page will automatically refresh every two minutes.

Flight plan parsing failed; only flown route is shown


Map Options




Map Legend


Flown Route
Filed Route
Departure Airport
Arrival Airport
Navaid (VOR, NDB)
Fix

Horizontal Profiles

Position Reports

Time Latitude Longitude Heading Altitude Ground
Speed
14-Jun-18 15:18 38.164174 -102.818271 253 34272ft 354kts
14-Jun-18 15:19 38.133066 -102.937099 253 34274ft 355kts
14-Jun-18 15:20 38.101908 -103.056280 253 34278ft 355kts
14-Jun-18 15:21 38.071189 -103.175168 253 34283ft 355kts
14-Jun-18 15:22 38.040372 -103.294177 253 34287ft 355kts
14-Jun-18 15:23 38.009227 -103.413476 253 34289ft 356kts
14-Jun-18 15:24 37.977943 -103.532568 252 34290ft 357kts
14-Jun-18 15:25 37.946498 -103.651638 252 34289ft 356kts
14-Jun-18 15:26 37.914832 -103.770960 252 34287ft 356kts
14-Jun-18 15:27 37.883157 -103.889757 252 34284ft 356kts
14-Jun-18 15:28 37.856678 -103.988638 252 34281ft 356kts
14-Jun-18 15:29 37.819365 -104.127339 252 34278ft 356kts
14-Jun-18 15:30 37.787347 -104.245770 252 34276ft 356kts
14-Jun-18 15:31 37.755136 -104.364374 252 34291ft 357kts
14-Jun-18 15:32 37.722705 -104.483237 252 34317ft 357kts
14-Jun-18 15:33 37.690186 -104.601885 252 34333ft 358kts
14-Jun-18 15:34 37.657510 -104.720576 251 34355ft 358kts
14-Jun-18 15:35 37.624570 -104.839681 251 34387ft 359kts
14-Jun-18 15:36 37.591568 -104.958476 251 34425ft 359kts
14-Jun-18 15:37 37.564004 -105.057290 251 34454ft 359kts
14-Jun-18 15:38 37.530715 -105.176143 251 34477ft 359kts
14-Jun-18 15:39 37.497365 -105.294708 251 34471ft 359kts
14-Jun-18 15:40 37.463895 -105.413162 251 34442ft 359kts
14-Jun-18 15:41 37.430414 -105.532076 251 34386ft 360kts
14-Jun-18 15:42 37.396552 -105.650577 251 34319ft 361kts
14-Jun-18 15:43 37.362443 -105.769242 251 34273ft 361kts
14-Jun-18 15:44 37.330212 -105.889068 252 34255ft 361kts
14-Jun-18 15:45 37.299840 -106.009092 252 34261ft 361kts
14-Jun-18 15:46 37.268961 -106.129937 252 34277ft 363kts
14-Jun-18 15:47 37.238151 -106.250314 252 34302ft 362kts
14-Jun-18 15:48 37.207549 -106.370732 252 34331ft 362kts
14-Jun-18 15:49 37.176570 -106.491319 252 34359ft 362kts
14-Jun-18 15:50 37.145473 -106.611516 252 34381ft 364kts
14-Jun-18 15:51 37.114077 -106.732195 252 34393ft 363kts
14-Jun-18 15:52 37.082638 -106.852430 251 34341ft 364kts
14-Jun-18 15:53 37.051017 -106.972781 251 34319ft 364kts
14-Jun-18 15:54 37.019141 -107.093542 251 34295ft 365kts
14-Jun-18 15:55 36.987157 -107.214140 251 34267ft 366kts
14-Jun-18 15:56 36.955005 -107.334817 251 34258ft 366kts
14-Jun-18 15:57 36.922582 -107.455956 251 34251ft 367kts
14-Jun-18 15:58 36.890101 -107.576749 251 34247ft 367kts
14-Jun-18 15:59 36.857513 -107.697397 251 34241ft 367kts
14-Jun-18 16:00 36.824875 -107.818675 251 34230ft 368kts
14-Jun-18 16:01 36.791872 -107.939421 250 34216ft 368kts
14-Jun-18 16:02 36.758575 -108.060530 250 34206ft 369kts
14-Jun-18 16:03 36.731559 -108.183763 256 34200ft 369kts
14-Jun-18 16:04 36.708937 -108.308483 255 34200ft 369kts
14-Jun-18 16:05 36.685782 -108.433414 255 34201ft 369kts
14-Jun-18 16:06 36.662683 -108.557842 255 34203ft 369kts
14-Jun-18 16:07 36.639650 -108.682233 255 34207ft 369kts
14-Jun-18 16:08 36.616252 -108.806897 255 34211ft 369kts
14-Jun-18 16:09 36.592710 -108.931159 255 34212ft 370kts
14-Jun-18 16:10 36.568996 -109.055491 255 34215ft 369kts
14-Jun-18 16:11 36.545075 -109.180111 255 34223ft 369kts
14-Jun-18 16:12 36.521083 -109.304256 255 34223ft 369kts
14-Jun-18 16:13 36.496973 -109.428299 254 34221ft 370kts
14-Jun-18 16:14 36.472592 -109.553006 254 34210ft 370kts
14-Jun-18 16:15 36.448169 -109.677196 254 34205ft 370kts
14-Jun-18 16:16 36.423627 -109.801279 254 34201ft 370kts
14-Jun-18 16:17 36.398869 -109.925743 254 34196ft 371kts
14-Jun-18 16:18 36.374250 -110.050026 254 34192ft 370kts
14-Jun-18 16:19 36.349198 -110.174230 254 34186ft 370kts
14-Jun-18 16:20 36.324021 -110.297893 254 34181ft 370kts
14-Jun-18 16:21 36.298764 -110.421413 254 34176ft 370kts
14-Jun-18 16:22 36.273636 -110.545345 254 34171ft 370kts
14-Jun-18 16:23 36.248418 -110.668634 254 34167ft 368kts
14-Jun-18 16:24 36.223107 -110.791547 254 34164ft 368kts
14-Jun-18 16:25 36.198124 -110.914861 254 34163ft 368kts
14-Jun-18 16:26 36.172976 -111.037516 254 34163ft 367kts
14-Jun-18 16:27 36.147673 -111.159804 253 34164ft 367kts
14-Jun-18 16:28 36.122141 -111.282355 253 34166ft 367kts
14-Jun-18 16:29 36.096560 -111.404366 253 34168ft 367kts
14-Jun-18 16:30 36.070863 -111.526269 253 34169ft 367kts
14-Jun-18 16:31 36.044955 -111.648474 253 34171ft 367kts
14-Jun-18 16:32 36.019005 -111.770187 253 34183ft 366kts
14-Jun-18 16:33 35.992945 -111.891772 253 34187ft 366kts
14-Jun-18 16:34 35.966681 -112.013659 253 34188ft 366kts
14-Jun-18 16:35 35.944536 -112.115929 253 34190ft 366kts
14-Jun-18 16:36 35.939504 -112.139792 252 33363ft 238kts
14-Jun-18 16:37 35.921163 -112.223777 252 33251ft 273kts
14-Jun-18 16:38 35.899254 -112.323880 253 32420ft 334kts
14-Jun-18 16:39 35.873814 -112.439612 253 31423ft 349kts
14-Jun-18 16:40 35.848653 -112.553605 253 30422ft 343kts
14-Jun-18 16:41 35.823668 -112.666294 252 29423ft 339kts
14-Jun-18 16:42 35.798765 -112.778096 252 28419ft 336kts
14-Jun-18 16:43 35.774099 -112.888339 252 27420ft 332kts
14-Jun-18 16:44 35.758023 -112.999782 265 26385ft 334kts
14-Jun-18 16:45 35.757186 -113.113901 265 25381ft 331kts
14-Jun-18 16:46 35.756264 -113.226734 265 24382ft 329kts
14-Jun-18 16:47 35.755212 -113.338705 265 23382ft 326kts
14-Jun-18 16:48 35.754224 -113.449841 265 22379ft 322kts
14-Jun-18 16:49 35.753405 -113.559361 265 21379ft 318kts
14-Jun-18 16:50 35.752356 -113.667475 265 20379ft 314kts
14-Jun-18 16:51 35.751157 -113.774733 265 19376ft 311kts
14-Jun-18 16:52 35.749843 -113.880681 265 18376ft 308kts
14-Jun-18 16:53 35.748471 -113.985851 265 17377ft 305kts
14-Jun-18 16:54 35.747243 -114.089650 265 16377ft 302kts
14-Jun-18 16:55 35.745651 -114.192346 265 15206ft 298kts
14-Jun-18 16:56 35.743956 -114.292789 265 13681ft 287kts
14-Jun-18 16:57 35.743582 -114.389566 281 12266ft 282kts
14-Jun-18 16:58 35.794128 -114.463854 311 11764ft 283kts
14-Jun-18 16:59 35.848500 -114.533171 311 10466ft 283kts
14-Jun-18 17:00 35.904496 -114.607284 311 9451ft 301kts
14-Jun-18 17:01 35.960546 -114.683463 311 8448ft 296kts
14-Jun-18 17:02 36.013767 -114.756212 311 7428ft 264kts
14-Jun-18 17:03 36.060482 -114.820261 311 6482ft 245kts
14-Jun-18 17:04 36.074074 -114.894203 267 5508ft 236kts
14-Jun-18 17:05 36.073801 -114.971763 267 4620ft 215kts
14-Jun-18 17:06 36.073740 -115.038992 267 3559ft 173kts
14-Jun-18 17:07 36.073691 -115.095097 267 2695ft 162kts
14-Jun-18 17:08 36.073672 -115.146340 266 2189ft 92kts
14-Jun-18 17:09 36.075191 -115.156102 322 2189ft 17kts
14-Jun-18 17:10 36.077826 -115.158103 35 2189ft 11kts
14-Jun-18 17:11 36.078041 -115.152854 91 2189ft 15kts
14-Jun-18 17:12 36.077743 -115.146800 94 2189ft 18kts
14-Jun-18 17:13 36.078134 -115.141622 0 2189ft 14kts
14-Jun-18 17:14 36.080252 -115.141238 54 2189ft 2kts
14-Jun-18 17:15 36.080267 -115.140612 93 2189ft 0kts

Navigation Log

Ident Type
Flight plan parsing failed, navigation log unavailable